CheckWX is a tool to help pilots better visualize weather data.  It is not intended as a substitute for an official pre-flight weather briefing.

03:20:24 UTC

KVPS TAF
Eglin AFB / Destin-Ft Walton Beach Airport
Valparaiso/Destin-Ft Walton Beach, Florida, USA
TAF KVPS 290200Z 2902/0108 28010KT 9999 SKC QNH3020INS BECMG 2913/2914 29012G18KT 9999 SKC QNH3022NS WND 30009KT AFT 2924 TX19/2920Z TN02/2912Z

Feb-29@
02:00 UTC

Feb-29 @ 02:00 UTC

Feb-29@
13:00 UTC

Feb-29 @ 13:00 UTC

TAF KVPS 290200Z 2902/0108 28010KT 9999 SKC QNH3020INS
Wind
  • 280° at 10 KTS
Cloud Levels
  • Clear skies

Feb-29@
13:00 UTC

Feb-29 @ 13:00 UTC

Mar-1@
08:00 UTC

Mar-1 @ 08:00 UTC

BECMG 2913/2914 29012G18KT 9999 SKC QNH3022NS WND 30009KT AFT 2924 TX19/2920Z TN02/2912Z

Becoming

Becoming Conditions expected by Sat, Feb 29, 2020 @ 14:00 UTC

Wind
  • 290° at 12 KTS
  • {Gusting to 18 KTS
Cloud Levels
  • Clear skies